createdAt,value
2022-08-07T00:02:57.251Z,1.60
2022-08-07T00:05:46.370Z,1.70
2022-08-07T00:08:36.417Z,1.70
2022-08-07T00:11:33.399Z,1.80
2022-08-07T00:14:14.848Z,2.00
2022-08-07T00:17:10.494Z,1.60
2022-08-07T00:20:03.300Z,1.30
2022-08-07T00:22:53.959Z,1.50
2022-08-07T00:25:42.561Z,1.60
2022-08-07T00:28:45.892Z,1.30
2022-08-07T00:31:44.401Z,1.70
2022-08-07T00:34:38.911Z,1.60
2022-08-07T00:37:29.423Z,1.60
2022-08-07T00:40:40.515Z,1.20
2022-08-07T00:44:01.151Z,1.20
2022-08-07T00:46:38.266Z,1.80
2022-08-07T00:50:20.812Z,1.40
2022-08-07T00:52:38.899Z,1.40
2022-08-07T00:56:02.765Z,1.10
2022-08-07T00:58:43.822Z,1.30
2022-08-07T01:01:44.543Z,1.50
2022-08-07T01:04:41.356Z,1.40
2022-08-07T01:07:32.376Z,1.10
2022-08-07T01:10:22.845Z,1.40
2022-08-07T01:13:11.513Z,1.40
2022-08-07T01:16:07.635Z,1.20
2022-08-07T01:18:56.739Z,1.00
2022-08-07T01:21:48.045Z,1.10
2022-08-07T01:24:37.935Z,1.30
2022-08-07T01:27:31.978Z,1.40
2022-08-07T01:30:20.128Z,1.60
2022-08-07T01:33:16.491Z,1.50
2022-08-07T01:36:11.448Z,1.60
2022-08-07T01:39:09.651Z,1.50
2022-08-07T01:42:37.910Z,1.20
2022-08-07T01:45:18.329Z,1.10
2022-08-07T01:48:21.162Z,1.10
2022-08-07T01:52:02.656Z,1.50
2022-08-07T01:54:36.849Z,1.60
2022-08-07T01:57:29.528Z,1.20
2022-08-07T02:00:28.930Z,1.20
2022-08-07T02:03:32.047Z,1.10
2022-08-07T02:06:33.495Z,1.30
2022-08-07T02:09:33.916Z,1.50
2022-08-07T02:12:41.379Z,1.60
2022-08-07T02:15:38.949Z,1.40
2022-08-07T02:18:30.773Z,1.30
2022-08-07T02:21:22.186Z,1.40
2022-08-07T02:24:12.822Z,1.40
2022-08-07T02:27:10.826Z,1.40
2022-08-07T02:30:07.150Z,1.10
2022-08-07T02:33:00.808Z,1.30
2022-08-07T02:36:29.071Z,1.50
2022-08-07T02:39:16.970Z,1.40
2022-08-07T02:42:21.574Z,1.60
2022-08-07T02:45:59.235Z,1.60
2022-08-07T02:48:22.639Z,1.70
2022-08-07T02:51:42.829Z,1.60
2022-08-07T02:54:26.623Z,1.50
2022-08-07T02:57:19.141Z,1.70
2022-08-07T03:00:15.406Z,1.90
2022-08-07T03:03:13.597Z,1.60
2022-08-07T03:06:03.262Z,1.70
2022-08-07T03:08:53.391Z,1.50
2022-08-07T03:11:52.605Z,1.50
2022-08-07T03:14:51.993Z,1.60
2022-08-07T03:17:52.933Z,1.60
2022-08-07T03:20:46.615Z,1.80
2022-08-07T03:23:34.067Z,1.70
2022-08-07T03:26:50.894Z,1.50
2022-08-07T03:29:51.024Z,1.50
2022-08-07T03:32:49.148Z,1.30
2022-08-07T03:35:50.448Z,1.80
2022-08-07T03:38:41.301Z,1.50
2022-08-07T03:41:42.359Z,1.80
2022-08-07T03:44:38.747Z,1.40
2022-08-07T03:47:29.551Z,1.80
2022-08-07T03:50:29.405Z,1.70
2022-08-07T03:53:18.148Z,1.80
2022-08-07T03:56:13.745Z,1.50
2022-08-07T03:59:08.868Z,1.90
2022-08-07T04:02:00.293Z,1.80
2022-08-07T04:04:45.220Z,1.90
2022-08-07T04:07:42.685Z,1.70
2022-08-07T04:10:35.250Z,1.80
2022-08-07T04:13:28.089Z,1.60
2022-08-07T04:16:38.064Z,1.70
2022-08-07T04:19:50.927Z,1.80
2022-08-07T04:22:53.585Z,1.70
2022-08-07T04:25:43.207Z,2.30
2022-08-07T04:28:32.382Z,2.30
2022-08-07T04:31:39.225Z,2.10
2022-08-07T04:34:39.399Z,1.90
2022-08-07T04:37:28.889Z,1.80
2022-08-07T04:40:17.608Z,2.00
2022-08-07T04:43:10.780Z,2.50
2022-08-07T04:46:12.470Z,2.10
2022-08-07T04:49:24.572Z,2.20
2022-08-07T04:52:26.501Z,3.00
2022-08-07T04:58:15.999Z,2.50
2022-08-07T04:59:18.288Z,1.90
2022-08-07T05:02:04.190Z,2.10
2022-08-07T05:05:00.759Z,1.90
2022-08-07T05:07:56.961Z,2.20
2022-08-07T05:10:51.221Z,1.90
2022-08-07T05:14:54.218Z,2.90
2022-08-07T05:17:11.980Z,3.10
2022-08-07T05:20:04.378Z,2.40
2022-08-07T05:23:03.959Z,2.60
2022-08-07T05:26:15.652Z,2.50
2022-08-07T05:29:08.043Z,2.10
2022-08-07T05:31:59.326Z,2.50
2022-08-07T05:34:49.713Z,2.80
2022-08-07T05:37:42.384Z,2.60
2022-08-07T05:40:32.167Z,2.70
2022-08-07T05:43:49.980Z,2.30
2022-08-07T05:46:34.099Z,1.70
2022-08-07T05:49:23.981Z,1.60
2022-08-07T05:52:12.777Z,1.30
2022-08-07T05:55:10.210Z,1.60
2022-08-07T05:58:01.679Z,1.40
2022-08-07T06:00:53.427Z,1.50
2022-08-07T06:03:56.849Z,1.50
2022-08-07T06:06:56.696Z,1.30
2022-08-07T06:10:04.177Z,1.30
2022-08-07T06:12:54.654Z,1.00
2022-08-07T06:15:44.247Z,1.30
2022-08-07T06:18:36.175Z,1.20
2022-08-07T06:22:14.460Z,1.20
2022-08-07T06:24:53.349Z,0.90
2022-08-07T06:28:01.117Z,1.10
2022-08-07T06:30:52.865Z,1.30
2022-08-07T06:33:42.454Z,1.20
2022-08-07T06:36:35.308Z,1.10
2022-08-07T06:40:12.913Z,0.90
2022-08-07T06:42:36.885Z,0.90
2022-08-07T06:45:44.822Z,0.80
2022-08-07T06:48:33.883Z,0.70
2022-08-07T06:51:33.190Z,0.70
2022-08-07T06:55:32.931Z,0.80
2022-08-07T06:57:39.867Z,0.70
2022-08-07T07:00:42.844Z,0.90
2022-08-07T07:03:47.951Z,0.80
2022-08-07T07:07:00.287Z,0.70
2022-08-07T07:09:51.654Z,0.70
2022-08-07T07:12:53.391Z,0.80
2022-08-07T07:15:51.416Z,0.80
2022-08-07T07:18:48.212Z,0.80
2022-08-07T07:22:04.633Z,0.80
2022-08-07T07:25:02.407Z,0.80
2022-08-07T07:28:42.537Z,0.90
2022-08-07T07:31:26.701Z,0.90
2022-08-07T07:34:30.876Z,0.80
2022-08-07T07:37:44.333Z,1.00
2022-08-07T07:40:33.423Z,0.70
2022-08-07T07:43:27.407Z,0.90
2022-08-07T07:46:54.229Z,0.80
2022-08-07T07:50:32.646Z,0.80
2022-08-07T07:52:57.730Z,0.90
2022-08-07T07:55:54.887Z,0.90
2022-08-07T07:58:48.667Z,0.90
2022-08-07T08:02:04.099Z,0.80
2022-08-07T08:04:55.335Z,0.90
2022-08-07T08:07:51.454Z,0.90
2022-08-07T08:10:49.089Z,0.90
2022-08-07T08:13:54.312Z,0.80
2022-08-07T08:16:50.310Z,0.80
2022-08-07T08:20:18.824Z,0.60
2022-08-07T08:23:11.400Z,0.80
2022-08-07T08:26:25.148Z,0.70
2022-08-07T08:29:18.572Z,0.90
2022-08-07T08:32:17.972Z,0.80
2022-08-07T08:35:12.096Z,0.90
2022-08-07T08:38:08.532Z,0.70
2022-08-07T08:41:02.888Z,0.90
2022-08-07T08:44:01.511Z,0.80
2022-08-07T08:47:00.572Z,0.90
2022-08-07T08:50:05.360Z,0.90
2022-08-07T08:53:03.106Z,0.90
2022-08-07T08:55:59.026Z,0.90
2022-08-07T08:58:50.597Z,0.70
2022-08-07T09:01:49.831Z,0.70
2022-08-07T09:04:44.431Z,0.90
2022-08-07T09:07:46.307Z,1.10
2022-08-07T09:10:55.574Z,0.70
2022-08-07T09:14:03.523Z,0.70
2022-08-07T09:16:59.893Z,0.70
2022-08-07T09:19:57.059Z,0.70
2022-08-07T09:24:30.376Z,0.70
2022-08-07T09:26:24.684Z,0.60
2022-08-07T09:30:06.615Z,0.80
2022-08-07T09:32:54.165Z,0.70
2022-08-07T09:36:04.797Z,0.70
2022-08-07T09:39:11.433Z,0.80
2022-08-07T09:42:33.548Z,0.70
2022-08-07T09:47:51.425Z,0.70
2022-08-07T09:49:59.502Z,0.70
2022-08-07T09:52:15.973Z,0.60
2022-08-07T09:55:29.318Z,0.70
2022-08-07T09:58:51.361Z,0.70
2022-08-07T10:02:05.006Z,0.70
2022-08-07T10:05:13.930Z,0.70
2022-08-07T10:08:15.916Z,0.60
2022-08-07T10:11:16.906Z,0.70
2022-08-07T10:14:22.951Z,0.60
2022-08-07T10:18:01.119Z,0.60
2022-08-07T10:21:20.010Z,0.80
2022-08-07T10:24:33.401Z,0.80
2022-08-07T10:28:02.490Z,0.60
2022-08-07T10:31:06.132Z,0.60
2022-08-07T10:34:17.909Z,0.60
2022-08-07T10:37:26.406Z,0.70
2022-08-07T10:40:40.178Z,0.70
2022-08-07T10:43:35.094Z,0.50
2022-08-07T10:46:29.573Z,0.60
2022-08-07T10:49:49.094Z,0.70
2022-08-07T10:52:51.156Z,0.70
2022-08-07T10:55:46.159Z,0.70
2022-08-07T10:58:59.933Z,0.70
2022-08-07T11:02:05.349Z,0.60
2022-08-07T11:05:14.305Z,0.70
2022-08-07T11:08:12.528Z,0.70
2022-08-07T11:11:13.882Z,0.60
2022-08-07T11:14:45.145Z,0.60
2022-08-07T11:17:43.512Z,0.60
2022-08-07T11:20:42.127Z,0.50
2022-08-07T11:23:50.865Z,0.50
2022-08-07T11:26:50.024Z,0.70
2022-08-07T11:29:48.370Z,0.50
2022-08-07T11:32:52.743Z,0.60
2022-08-07T11:35:59.626Z,0.40
2022-08-07T11:39:14.560Z,0.60
2022-08-07T11:42:19.040Z,0.50
2022-08-07T11:45:23.852Z,0.50
2022-08-07T11:49:27.667Z,0.50
2022-08-07T11:52:28.937Z,0.50
2022-08-07T11:56:09.620Z,0.60
2022-08-07T12:00:10.404Z,0.50
2022-08-07T12:02:33.320Z,0.50
2022-08-07T12:05:47.472Z,0.50
2022-08-07T12:08:42.537Z,0.70
2022-08-07T12:11:56.118Z,0.60
2022-08-07T12:15:00.104Z,0.50
2022-08-07T12:17:59.047Z,0.70
2022-08-07T12:21:01.725Z,0.70
2022-08-07T12:24:07.345Z,0.70
2022-08-07T12:27:13.281Z,0.50
2022-08-07T12:30:10.824Z,0.70
2022-08-07T12:33:09.401Z,0.70
2022-08-07T12:36:11.041Z,0.60
2022-08-07T12:39:01.225Z,0.70
2022-08-07T12:41:53.248Z,0.60
2022-08-07T12:44:45.645Z,0.80
2022-08-07T12:47:45.525Z,0.70
2022-08-07T12:50:48.838Z,0.70
2022-08-07T12:54:03.447Z,0.70
2022-08-07T12:56:59.181Z,0.50
2022-08-07T12:59:53.808Z,0.60
2022-08-07T13:03:00.665Z,0.60
2022-08-07T13:06:22.018Z,0.60
2022-08-07T13:10:19.470Z,0.60
2022-08-07T13:12:51.541Z,0.50
2022-08-07T13:15:50.926Z,0.70
2022-08-07T13:18:42.951Z,0.60
2022-08-07T13:21:54.951Z,0.50
2022-08-07T13:24:56.485Z,0.70
2022-08-07T13:28:12.371Z,0.60
2022-08-07T13:31:06.437Z,0.60
2022-08-07T13:34:33.768Z,0.60
2022-08-07T13:37:27.996Z,0.60
2022-08-07T13:40:35.529Z,0.70
2022-08-07T13:43:34.252Z,0.50
2022-08-07T13:46:32.901Z,0.70
2022-08-07T13:50:33.522Z,0.60
2022-08-07T13:52:40.842Z,0.60
2022-08-07T13:55:34.031Z,0.50
2022-08-07T13:58:54.219Z,0.70
2022-08-07T14:02:04.830Z,0.60
2022-08-07T14:05:00.255Z,0.80
2022-08-07T14:08:00.264Z,0.60
2022-08-07T14:11:01.969Z,0.50
2022-08-07T14:14:08.169Z,0.80
2022-08-07T14:16:59.731Z,0.50
2022-08-07T14:20:40.817Z,0.60
2022-08-07T14:23:59.498Z,0.60
2022-08-07T14:26:50.229Z,0.80
2022-08-07T14:30:05.354Z,0.80
2022-08-07T14:33:01.236Z,0.90
2022-08-07T14:35:47.372Z,1.00
2022-08-07T14:38:36.870Z,0.80
2022-08-07T14:41:34.203Z,0.80
2022-08-07T14:44:47.463Z,0.60
2022-08-07T14:47:44.716Z,0.70
2022-08-07T14:50:42.138Z,0.80
2022-08-07T14:54:08.779Z,0.60
2022-08-07T14:56:43.359Z,0.80
2022-08-07T15:02:47.172Z,0.90
2022-08-07T15:05:54.971Z,0.60
2022-08-07T15:08:54.763Z,0.80
2022-08-07T15:12:00.308Z,0.60
2022-08-07T15:14:57.731Z,0.70
2022-08-07T15:17:55.934Z,0.70
2022-08-07T15:20:55.265Z,0.70
2022-08-07T15:27:06.195Z,0.80
2022-08-07T15:30:08.844Z,0.70
2022-08-07T15:37:02.534Z,0.90
2022-08-07T15:39:26.665Z,0.60
2022-08-07T15:42:51.625Z,0.70
2022-08-07T15:45:57.577Z,0.70
2022-08-07T15:49:03.490Z,0.80
2022-08-07T15:52:03.146Z,0.60
2022-08-07T15:54:56.305Z,0.70
2022-08-07T15:57:54.294Z,0.80
2022-08-07T16:00:50.971Z,0.80
2022-08-07T16:03:47.052Z,0.90
2022-08-07T16:06:42.547Z,0.90
2022-08-07T16:09:48.848Z,0.70
2022-08-07T16:13:05.435Z,0.90
2022-08-07T16:16:48.166Z,0.60
2022-08-07T16:19:58.995Z,0.70
2022-08-07T16:23:11.791Z,1.00
2022-08-07T16:26:14.392Z,0.90
2022-08-07T16:30:09.702Z,0.90
2022-08-07T16:32:38.480Z,0.80
2022-08-07T16:35:56.925Z,0.80
2022-08-07T16:39:16.497Z,0.90
2022-08-07T16:42:29.695Z,0.80
2022-08-07T16:46:47.168Z,0.80
2022-08-07T16:50:28.932Z,0.80
2022-08-07T16:52:55.825Z,1.00
2022-08-07T16:55:53.320Z,0.80
2022-08-07T16:59:11.145Z,1.00
2022-08-07T17:02:53.412Z,1.00
2022-08-07T17:06:28.284Z,1.20
2022-08-07T17:10:07.007Z,1.30
2022-08-07T17:12:44.391Z,1.60
2022-08-07T17:15:50.929Z,1.50
2022-08-07T17:18:49.078Z,1.00
2022-08-07T17:21:50.728Z,1.20
2022-08-07T17:24:55.632Z,1.10
2022-08-07T17:27:53.960Z,1.10
2022-08-07T17:30:58.447Z,1.00
2022-08-07T17:34:15.313Z,1.30
2022-08-07T17:37:14.359Z,1.20
2022-08-07T17:40:30.549Z,1.00
2022-08-07T17:44:02.683Z,1.10
2022-08-07T17:46:47.423Z,1.00
2022-08-07T17:49:51.542Z,1.10
2022-08-07T17:52:47.212Z,1.30
2022-08-07T17:56:00.762Z,1.00
2022-08-07T17:58:57.373Z,1.10
2022-08-07T18:01:56.774Z,1.20
2022-08-07T18:04:55.746Z,0.90
2022-08-07T18:07:58.777Z,1.00
2022-08-07T18:12:06.651Z,1.00
2022-08-07T18:14:23.757Z,1.10
2022-08-07T18:18:46.072Z,1.30
2022-08-07T18:21:07.325Z,1.00
2022-08-07T18:24:07.368Z,1.20
2022-08-07T18:27:38.707Z,1.30
2022-08-07T18:30:38.354Z,1.30
2022-08-07T18:34:03.087Z,1.00
2022-08-07T18:37:09.641Z,1.20
2022-08-07T18:40:40.597Z,1.40
2022-08-07T18:43:43.465Z,1.40
2022-08-07T18:46:46.747Z,1.20
2022-08-07T18:50:33.053Z,1.20
2022-08-07T18:53:13.963Z,1.40
2022-08-07T18:56:16.394Z,1.10
2022-08-07T18:59:48.084Z,1.40
2022-08-07T19:02:42.682Z,1.00
2022-08-07T19:06:04.333Z,1.40
2022-08-07T19:09:09.535Z,1.20
2022-08-07T19:12:26.539Z,1.20
2022-08-07T19:16:02.500Z,1.30
2022-08-07T19:18:35.717Z,1.20
2022-08-07T19:21:47.884Z,1.30
2022-08-07T19:24:48.161Z,1.20
2022-08-07T19:28:30.838Z,1.40
2022-08-07T19:31:43.721Z,1.40
2022-08-07T19:34:11.416Z,1.30
2022-08-07T19:37:10.327Z,1.40
2022-08-07T19:40:02.418Z,1.50
2022-08-07T19:42:54.360Z,1.70
2022-08-07T19:46:04.846Z,1.10
2022-08-07T19:49:15.797Z,1.40
2022-08-07T19:52:05.881Z,2.10
2022-08-07T19:55:13.835Z,2.00
2022-08-07T19:58:13.446Z,2.00
2022-08-07T20:01:05.010Z,2.10
2022-08-07T20:04:02.295Z,1.80
2022-08-07T20:06:54.070Z,2.60
2022-08-07T20:10:36.213Z,2.50
2022-08-07T20:13:01.494Z,1.70
2022-08-07T20:15:58.133Z,1.70
2022-08-07T20:18:48.311Z,2.00
2022-08-07T20:21:46.754Z,1.90
2022-08-07T20:24:47.355Z,1.40
2022-08-07T20:27:48.172Z,1.80
2022-08-07T20:30:50.135Z,1.50
2022-08-07T20:33:41.799Z,2.10
2022-08-07T20:36:33.009Z,1.90
2022-08-07T20:40:03.625Z,1.80
2022-08-07T20:42:56.109Z,2.10
2022-08-07T20:46:27.060Z,1.40
2022-08-07T20:48:57.990Z,1.50
2022-08-07T20:51:51.055Z,1.90
2022-08-07T20:54:53.342Z,1.90
2022-08-07T20:58:02.283Z,2.30
2022-08-07T21:01:00.904Z,2.00
2022-08-07T21:04:19.876Z,1.60
2022-08-07T21:07:14.791Z,1.80
2022-08-07T21:10:14.701Z,1.30
2022-08-07T21:13:18.814Z,1.40
2022-08-07T21:16:14.878Z,1.50
2022-08-07T21:19:19.527Z,2.10
2022-08-07T21:22:14.779Z,1.80
2022-08-07T21:25:13.334Z,1.90
2022-08-07T21:28:47.636Z,2.00
2022-08-07T21:32:42.293Z,1.70
2022-08-07T21:34:57.225Z,2.40
2022-08-07T21:37:58.324Z,1.50
2022-08-07T21:40:59.110Z,1.70
2022-08-07T21:43:56.874Z,1.40
2022-08-07T21:46:52.790Z,1.60
2022-08-07T21:50:02.496Z,1.90
2022-08-07T21:53:07.772Z,1.40
2022-08-07T21:56:16.710Z,1.30
2022-08-07T22:00:03.126Z,1.70
2022-08-07T22:02:53.518Z,1.80
2022-08-07T22:05:49.727Z,1.90
2022-08-07T22:08:44.230Z,1.80
2022-08-07T22:12:05.665Z,1.90
2022-08-07T22:15:02.206Z,1.90
2022-08-07T22:17:59.764Z,1.80
2022-08-07T22:20:54.567Z,1.70
2022-08-07T22:23:52.649Z,1.80
2022-08-07T22:26:46.983Z,1.80
2022-08-07T22:29:49.791Z,2.50
2022-08-07T22:32:55.681Z,1.70
2022-08-07T22:35:54.483Z,2.40
2022-08-07T22:38:52.566Z,2.00
2022-08-07T22:42:03.599Z,2.40
2022-08-07T22:44:58.586Z,1.90
2022-08-07T22:48:54.886Z,1.60
2022-08-07T22:51:49.357Z,1.70
2022-08-07T22:55:22.376Z,2.10
2022-08-07T22:58:37.651Z,2.40
2022-08-07T23:01:51.227Z,1.90
2022-08-07T23:06:07.469Z,1.70
2022-08-07T23:08:30.195Z,1.40
2022-08-07T23:11:35.138Z,1.70
2022-08-07T23:14:48.461Z,2.20
2022-08-07T23:17:50.069Z,1.90
2022-08-07T23:20:58.907Z,2.50
2022-08-07T23:24:11.919Z,1.90
2022-08-07T23:27:33.844Z,2.30
2022-08-07T23:30:36.076Z,2.10
2022-08-07T23:34:34.700Z,2.10
2022-08-07T23:37:37.640Z,2.90
2022-08-07T23:48:28.942Z,4.30
2022-08-07T23:53:05.707Z,4.40
2022-08-07T23:54:46.421Z,4.00
2022-08-07T23:57:44.224Z,4.10
